2001 MAN-YI (2001212N10158)


On this page: IBTrACS data - Map and Plots - Positions - Intensities - Original source data

Summary

Start Jul 31
End Aug 11
Basin WP
LMI 120 kt
Sources jtwc_wp
tokyo
cma
hko
In WMO? Yes
Previous storm 2001 TORAJI (WP)
Previous in basin 2001 TORAJI (WP)
Concurrent storms 2001 KONG-REY (WP)
2001 TORAJI (WP)
2001 MAN-YI (WP)
2001 MISSING (WP)
2001 BARRY (NA)
2001 USAGI (WP)
Next in basin 2001 MISSING (WP)
Next storm 2001 MISSING (WP)

top of page IBTrACS Data: File Access

top of page HURSAT Data: File Access

Image of storm

top of page Plots:

Map of storm track will not appear if FTP is down
Time series of cyclone Maximum Sustained Wind will not appear if FTP is down
Time series of cyclone Minimum Central Pressure will not appear if FTP is down

top of page Track Data:Position

jtwc_wp tokyo cma hko
Date Lat Lon Lat Lon Lat Lon Lat Lon
2001-07-31 06:00:00 10.1 157.8
2001-07-31 12:00:00 9.8 157.2
2001-07-31 18:00:00 9.5 156.3
2001-08-01 00:00:00 9.5 155.4
2001-08-01 06:00:00 10.0 154.4
2001-08-01 12:00:00 10.3 153.6
2001-08-01 18:00:00 10.7 152.8 10.4 152.8 10.4 152.8
2001-08-02 00:00:00 11.2 151.9 11.3 152.0 11.2 152.0 11.0 151.8
2001-08-02 06:00:00 11.7 150.9 11.8 150.9 11.8 151.1 11.8 151.2
2001-08-02 12:00:00 12.4 150.2 12.3 150.4 12.3 150.4 12.6 150.5
2001-08-02 18:00:00 13.6 149.5 13.6 149.6 13.5 149.5 13.7 149.6
2001-08-03 00:00:00 14.8 148.7 14.8 148.8 14.9 148.7 14.9 148.6
2001-08-03 06:00:00 16.1 147.6 16.1 147.7 16.1 147.7 16.1 147.7
2001-08-03 12:00:00 17.4 146.7 17.4 146.8 17.4 146.7 17.3 146.8
2001-08-03 18:00:00 18.4 145.9 18.4 145.8 18.4 145.8 18.5 145.9
2001-08-04 00:00:00 19.7 145.2 19.8 145.2 19.7 145.2 19.8 145.2
2001-08-04 06:00:00 21.1 144.5 21.2 144.6 21.2 144.5 21.1 144.5
2001-08-04 12:00:00 22.4 144.1 22.4 144.1 22.4 144.1 22.4 144.1
2001-08-04 18:00:00 23.5 143.7 23.6 143.7 23.6 143.7 23.6 143.8
2001-08-05 00:00:00 24.7 143.5 24.7 143.6 24.7 143.6 24.7 143.6
2001-08-05 06:00:00 25.3 143.6 25.3 143.6 25.3 143.6 25.3 143.7
2001-08-05 12:00:00 25.6 143.9 25.5 143.9 25.6 143.9 25.6 143.9
2001-08-05 18:00:00 25.9 144.3 25.9 144.2 25.9 144.2 25.9 144.2
2001-08-06 00:00:00 26.1 144.6 26.1 144.6 26.1 144.6 26.2 144.6
2001-08-06 06:00:00 26.5 145.0 26.5 144.9 26.5 145.0 26.5 145.0
jtwc_wp tokyo cma hko
2001-08-06 12:00:00 26.8 145.3 26.8 145.4 26.8 145.4 26.9 145.4
2001-08-06 18:00:00 27.2 145.8 27.3 145.9 27.3 145.9 27.3 145.9
2001-08-07 00:00:00 27.9 146.5 28.0 146.6 27.9 146.6 28.0 146.6
2001-08-07 06:00:00 28.9 147.4 29.0 147.4 29.0 147.4 28.9 147.4
2001-08-07 12:00:00 30.0 148.2 30.0 148.4 30.0 148.2 30.0 148.4
2001-08-07 18:00:00 31.1 149.2 31.2 149.3 31.2 149.3 31.2 149.3
2001-08-08 00:00:00 32.6 150.0 32.6 150.1 32.6 150.1 32.6 150.2
2001-08-08 06:00:00 34.3 150.8 34.2 150.7 34.2 150.7 34.2 150.8
2001-08-08 12:00:00 36.0 151.1 36.1 151.2 36.1 151.2 36.0 151.0
2001-08-08 18:00:00 37.6 151.1 37.6 151.0 37.6 151.2 37.6 151.2
2001-08-09 00:00:00 38.9 151.4 38.8 151.4 38.8 151.4 38.8 151.4
2001-08-09 06:00:00 40.4 151.8 40.4 151.6 40.4 151.6 40.5 151.6
2001-08-09 12:00:00 41.9 152.8 42.0 153.0 42.0 153.0
2001-08-09 18:00:00 43.7 154.3 43.7 154.3 43.7 154.3
2001-08-10 00:00:00 45.2 155.8 45.2 155.8
2001-08-10 06:00:00 46.4 157.5
2001-08-10 12:00:00 47.7 158.6
2001-08-10 18:00:00 49.1 160.6
2001-08-11 00:00:00 49.3 162.9

top of pageTrack Data:Intensity

jtwc_wp tokyo cma hko
Date Wind Pres Wind Pres Wind Pres Wind Pres
2001-07-31 06:00:00 15. 1006.
2001-07-31 12:00:00 15. 1006.
2001-07-31 18:00:00 15. 1006.
2001-08-01 00:00:00 15. 1006.
2001-08-01 06:00:00 15. 1006.
2001-08-01 12:00:00 20. 1004.
2001-08-01 18:00:00 25. 1002. 1004. 23. 1004.
2001-08-02 00:00:00 35. 997. 1004. 29. 1000. 30. 1000.
2001-08-02 06:00:00 45. 991. 35. 1000. 35. 995. 35. 998.
2001-08-02 12:00:00 45. 991. 40. 996. 39. 995. 40. 994.
2001-08-02 18:00:00 50. 987. 40. 996. 45. 990. 45. 990.
2001-08-03 00:00:00 55. 984. 45. 994. 45. 990. 50. 985.
2001-08-03 06:00:00 65. 976. 50. 990. 49. 990. 55. 980.
2001-08-03 12:00:00 75. 967. 50. 985. 58. 980. 60. 975.
2001-08-03 18:00:00 85. 958. 55. 980. 64. 975. 65. 970.
2001-08-04 00:00:00 95. 949. 60. 975. 68. 970. 70. 965.
2001-08-04 06:00:00 110. 933. 70. 965. 78. 960. 75. 960.
2001-08-04 12:00:00 120. 922. 75. 960. 87. 950. 80. 955.
2001-08-04 18:00:00 115. 927. 80. 955. 87. 950. 80. 955.
2001-08-05 00:00:00 115. 927. 80. 955. 87. 950. 80. 955.
2001-08-05 06:00:00 115. 927. 80. 955. 87. 950. 80. 955.
2001-08-05 12:00:00 110. 933. 80. 955. 87. 950. 80. 955.
2001-08-05 18:00:00 105. 938. 80. 955. 87. 950. 80. 955.
2001-08-06 00:00:00 95. 949. 75. 955. 87. 950. 75. 960.
2001-08-06 06:00:00 95. 949. 75. 955. 87. 950. 75. 960.
jtwc_wp tokyo cma hko
2001-08-06 12:00:00 115. 927. 75. 955. 87. 950. 75. 960.
2001-08-06 18:00:00 115. 927. 75. 955. 87. 950. 75. 960.
2001-08-07 00:00:00 110. 927. 70. 960. 87. 950. 75. 960.
2001-08-07 06:00:00 100. 944. 70. 960. 87. 950. 75. 960.
2001-08-07 12:00:00 100. 944. 65. 965. 78. 960. 70. 965.
2001-08-07 18:00:00 95. 949. 65. 965. 68. 970. 70. 965.
2001-08-08 00:00:00 85. 958. 60. 970. 64. 975. 65. 970.
2001-08-08 06:00:00 75. 967. 55. 975. 58. 980. 60. 975.
2001-08-08 12:00:00 65. 976. 55. 980. 54. 985. 55. 980.
2001-08-08 18:00:00 55. 984. 50. 985. 49. 990. 50. 985.
2001-08-09 00:00:00 55. 984. 45. 990. 45. 990. 45. 990.
2001-08-09 06:00:00 50. 987. 45. 992. 45. 990. 45. 990.
2001-08-09 12:00:00 40. 994. 40. 996. 39. 995.
2001-08-09 18:00:00 35. 997. 1002. 29. 1000.
2001-08-10 00:00:00 1004. 23. 1004.
2001-08-10 06:00:00 1008.
2001-08-10 12:00:00 1008.
2001-08-10 18:00:00 1010.
2001-08-11 00:00:00 1010.

top of page Links to source data

Source Source file Format
jtwc_wp bwp122001.txt ATCF
tokyo bst_all.txt:Line=50455:MAN-YI:109 JMA text table
cma CH2001BST.txt:Storm=10:Man-yi CMA text table
hko tc-besttrack-data.txt:Line=28643:MAN-YI HKO Text table